createdAt,value
2023-04-09T00:01:19.801Z,9.37
2023-04-09T00:03:47.960Z,9.07
2023-04-09T00:06:15.885Z,9.00
2023-04-09T00:08:43.806Z,9.60
2023-04-09T00:11:12.027Z,9.20
2023-04-09T00:13:40.201Z,9.37
2023-04-09T00:16:09.272Z,9.30
2023-04-09T00:18:37.539Z,9.67
2023-04-09T00:21:05.615Z,9.37
2023-04-09T00:23:33.588Z,9.57
2023-04-09T00:26:02.245Z,10.20
2023-04-09T00:28:30.157Z,9.03
2023-04-09T00:30:58.647Z,8.83
2023-04-09T00:33:27.067Z,9.47
2023-04-09T00:35:55.189Z,9.73
2023-04-09T00:38:23.111Z,9.47
2023-04-09T00:40:52.264Z,10.10
2023-04-09T00:43:20.278Z,10.13
2023-04-09T00:45:48.297Z,9.60
2023-04-09T00:48:16.289Z,9.83
2023-04-09T00:50:44.284Z,9.93
2023-04-09T00:53:12.418Z,9.57
2023-04-09T00:55:41.838Z,9.43
2023-04-09T00:58:09.947Z,10.27
2023-04-09T01:00:37.864Z,9.33
2023-04-09T01:03:06.723Z,9.70
2023-04-09T01:06:07.463Z,9.70
2023-04-09T01:08:53.450Z,9.40
2023-04-09T01:11:28.134Z,9.43
2023-04-09T01:14:20.369Z,10.13
2023-04-09T01:16:50.673Z,9.80
2023-04-09T01:19:50.591Z,10.43
2023-04-09T01:22:47.684Z,10.00
2023-04-09T01:25:24.490Z,10.70
2023-04-09T01:28:20.914Z,10.47
2023-04-09T01:30:54.245Z,10.47
2023-04-09T01:33:22.317Z,11.20
2023-04-09T01:35:50.618Z,10.00
2023-04-09T01:38:20.051Z,10.60
2023-04-09T01:40:48.191Z,10.63
2023-04-09T01:43:16.445Z,10.37
2023-04-09T01:45:45.281Z,9.97
2023-04-09T01:48:14.790Z,10.93
2023-04-09T01:50:42.692Z,11.10
2023-04-09T01:53:10.637Z,10.83
2023-04-09T01:55:38.615Z,9.80
2023-04-09T01:58:06.714Z,10.20
2023-04-09T02:00:40.743Z,10.23
2023-04-09T02:03:25.156Z,10.07
2023-04-09T02:06:02.608Z,10.70
2023-04-09T02:08:30.626Z,10.50
2023-04-09T02:11:00.161Z,10.60
2023-04-09T02:13:28.610Z,10.07
2023-04-09T02:15:56.951Z,8.80
2023-04-09T02:18:29.907Z,9.10
2023-04-09T02:20:58.259Z,9.37
2023-04-09T02:23:26.518Z,9.23
2023-04-09T02:25:54.779Z,9.43
2023-04-09T02:28:22.821Z,9.13
2023-04-09T02:30:50.940Z,9.70
2023-04-09T02:33:18.887Z,8.97
2023-04-09T02:35:46.910Z,9.77
2023-04-09T02:38:15.987Z,9.80
2023-04-09T02:40:44.136Z,9.93
2023-04-09T02:43:12.232Z,9.83
2023-04-09T02:45:40.155Z,9.10
2023-04-09T02:48:08.297Z,9.60
2023-04-09T02:50:36.224Z,9.73
2023-04-09T02:53:04.244Z,10.27
2023-04-09T02:55:32.181Z,9.60
2023-04-09T02:58:00.191Z,9.07
2023-04-09T03:00:28.253Z,8.93
2023-04-09T03:02:56.392Z,9.13
2023-04-09T03:05:24.561Z,9.37
2023-04-09T03:07:52.544Z,9.23
2023-04-09T03:10:20.584Z,9.27
2023-04-09T03:12:49.265Z,9.47
2023-04-09T03:15:17.412Z,9.53
2023-04-09T03:17:45.428Z,9.57
2023-04-09T03:20:13.426Z,10.20
2023-04-09T03:22:41.637Z,10.90
2023-04-09T03:25:10.117Z,10.03
2023-04-09T03:27:38.312Z,10.03
2023-04-09T03:30:06.828Z,10.70
2023-04-09T03:32:34.796Z,10.33
2023-04-09T03:35:02.848Z,9.73
2023-04-09T03:37:30.818Z,9.97
2023-04-09T03:39:58.827Z,9.60
2023-04-09T03:42:26.951Z,10.40
2023-04-09T03:44:55.731Z,9.37
2023-04-09T03:47:23.707Z,9.93
2023-04-09T03:49:51.765Z,10.00
2023-04-09T03:52:19.731Z,9.53
2023-04-09T03:54:47.682Z,10.87
2023-04-09T03:57:15.634Z,9.57
2023-04-09T03:59:43.703Z,9.43
2023-04-09T04:02:11.749Z,10.07
2023-04-09T04:04:39.799Z,11.13
2023-04-09T04:07:09.098Z,10.07
2023-04-09T04:09:37.287Z,9.53
2023-04-09T04:12:05.442Z,10.40
2023-04-09T04:14:33.594Z,10.37
2023-04-09T04:17:01.569Z,10.63
2023-04-09T04:19:29.606Z,9.90
2023-04-09T04:21:57.762Z,10.70
2023-04-09T04:24:25.744Z,10.97
2023-04-09T04:26:53.671Z,10.80
2023-04-09T04:29:21.694Z,10.37
2023-04-09T04:31:49.720Z,9.93
2023-04-09T04:34:17.921Z,9.60
2023-04-09T04:36:45.888Z,9.57
2023-04-09T04:39:13.858Z,10.07
2023-04-09T04:41:41.829Z,10.43
2023-04-09T04:44:09.792Z,11.13
2023-04-09T04:46:37.823Z,10.27
2023-04-09T04:49:05.821Z,10.07
2023-04-09T04:51:33.816Z,9.97
2023-04-09T04:54:02.004Z,10.33
2023-04-09T04:56:30.104Z,10.10
2023-04-09T04:58:58.047Z,10.07
2023-04-09T05:01:26.036Z,10.40
2023-04-09T05:03:54.241Z,10.90
2023-04-09T05:06:22.639Z,11.17
2023-04-09T05:08:50.812Z,11.10
2023-04-09T05:11:19.012Z,10.07
2023-04-09T05:13:47.336Z,10.63
2023-04-09T05:16:19.896Z,9.70
2023-04-09T05:18:48.569Z,10.13
2023-04-09T05:21:16.580Z,10.63
2023-04-09T05:23:44.506Z,10.53
2023-04-09T05:26:12.805Z,9.83
2023-04-09T05:28:40.792Z,10.90
2023-04-09T05:31:14.269Z,10.33
2023-04-09T05:33:42.616Z,11.20
2023-04-09T05:36:10.619Z,12.03
2023-04-09T05:38:38.670Z,11.93
2023-04-09T05:41:06.936Z,12.57
2023-04-09T05:43:34.853Z,13.10
2023-04-09T05:46:02.920Z,11.90
2023-04-09T05:48:30.962Z,11.57
2023-04-09T05:51:00.468Z,12.27
2023-04-09T05:53:29.050Z,10.93
2023-04-09T05:55:56.977Z,11.50
2023-04-09T05:58:25.014Z,10.73
2023-04-09T06:00:53.954Z,10.63
2023-04-09T06:03:22.273Z,11.00
2023-04-09T06:05:50.410Z,10.80
2023-04-09T06:08:18.583Z,12.47
2023-04-09T06:10:46.516Z,11.90
2023-04-09T06:13:14.549Z,11.23
2023-04-09T06:15:42.606Z,11.57
2023-04-09T06:18:10.624Z,11.43
2023-04-09T06:20:38.617Z,11.53
2023-04-09T06:23:07.117Z,11.13
2023-04-09T06:25:35.144Z,11.60
2023-04-09T06:28:04.324Z,10.90
2023-04-09T06:30:33.281Z,10.73
2023-04-09T06:33:01.275Z,10.57
2023-04-09T06:35:29.326Z,10.77
2023-04-09T06:37:57.335Z,10.53
2023-04-09T06:40:25.390Z,11.03
2023-04-09T06:42:53.397Z,11.37
2023-04-09T06:45:21.434Z,10.43
2023-04-09T06:47:49.839Z,11.70
2023-04-09T06:50:17.984Z,11.07
2023-04-09T06:52:46.087Z,11.17
2023-04-09T06:55:14.078Z,10.63
2023-04-09T06:57:42.063Z,11.67
2023-04-09T07:00:11.045Z,11.90
2023-04-09T07:02:39.383Z,10.57
2023-04-09T07:05:07.676Z,10.50
2023-04-09T07:07:35.637Z,11.17
2023-04-09T07:10:03.681Z,11.13
2023-04-09T07:12:32.670Z,11.37
2023-04-09T07:15:01.443Z,11.03
2023-04-09T07:17:29.517Z,11.80
2023-04-09T07:19:57.854Z,10.87
2023-04-09T07:22:27.998Z,11.20
2023-04-09T07:24:56.508Z,11.03
2023-04-09T07:27:25.937Z,11.27
2023-04-09T07:29:59.131Z,11.80
2023-04-09T07:32:28.620Z,11.67
2023-04-09T07:34:57.232Z,11.43
2023-04-09T07:37:25.258Z,10.67
2023-04-09T07:39:53.757Z,10.77
2023-04-09T07:42:21.825Z,11.30
2023-04-09T07:44:49.853Z,10.87
2023-04-09T07:47:18.065Z,10.17
2023-04-09T07:49:45.949Z,11.03
2023-04-09T07:52:13.956Z,10.63
2023-04-09T07:54:42.101Z,11.27
2023-04-09T07:57:10.092Z,11.00
2023-04-09T07:59:38.089Z,10.87
2023-04-09T08:02:06.199Z,10.90
2023-04-09T08:04:34.280Z,11.23
2023-04-09T08:07:02.392Z,10.60
2023-04-09T08:09:30.386Z,11.47
2023-04-09T08:11:58.627Z,11.43
2023-04-09T08:14:26.809Z,11.40
2023-04-09T08:16:54.865Z,10.63
2023-04-09T08:19:22.888Z,10.97
2023-04-09T08:21:50.940Z,11.03
2023-04-09T08:24:19.655Z,10.83
2023-04-09T08:26:47.898Z,11.27
2023-04-09T08:29:16.129Z,10.87
2023-04-09T08:31:44.584Z,10.57
2023-04-09T08:34:12.791Z,10.80
2023-04-09T08:36:40.922Z,11.23
2023-04-09T08:39:08.994Z,11.03
2023-04-09T08:41:37.034Z,11.30
2023-04-09T08:44:05.250Z,11.20
2023-04-09T08:46:33.503Z,11.87
2023-04-09T08:49:01.555Z,10.93
2023-04-09T08:51:30.218Z,11.03
2023-04-09T08:54:04.373Z,10.30
2023-04-09T08:56:33.363Z,11.07
2023-04-09T08:59:01.443Z,9.47
2023-04-09T09:01:31.284Z,10.30
2023-04-09T09:04:10.107Z,9.73
2023-04-09T09:06:40.032Z,10.57
2023-04-09T09:09:17.421Z,9.10
2023-04-09T09:11:47.434Z,8.73
2023-04-09T09:14:19.850Z,9.40
2023-04-09T09:16:57.108Z,10.23
2023-04-09T09:19:27.795Z,9.23
2023-04-09T09:22:06.167Z,9.57
2023-04-09T09:24:35.352Z,9.23
2023-04-09T09:27:03.935Z,8.93
2023-04-09T09:29:31.937Z,9.60
2023-04-09T09:31:59.883Z,10.13
2023-04-09T09:34:27.898Z,9.43
2023-04-09T09:36:56.019Z,9.97
2023-04-09T09:39:24.095Z,9.20
2023-04-09T09:41:52.144Z,8.37
2023-04-09T09:44:33.418Z,9.43
2023-04-09T09:47:01.964Z,9.17
2023-04-09T09:49:29.934Z,10.63
2023-04-09T09:51:59.210Z,9.77
2023-04-09T09:54:27.635Z,10.13
2023-04-09T09:56:57.238Z,9.93
2023-04-09T09:59:25.385Z,10.63
2023-04-09T10:01:59.894Z,9.93
2023-04-09T10:04:29.858Z,10.13
2023-04-09T10:06:58.177Z,9.10
2023-04-09T10:09:26.304Z,9.80
2023-04-09T10:11:54.333Z,8.73
2023-04-09T10:14:22.554Z,9.00
2023-04-09T10:16:50.612Z,9.43
2023-04-09T10:19:18.588Z,9.27
2023-04-09T10:21:55.198Z,8.85
2023-04-09T10:24:23.166Z,8.98
2023-04-09T10:26:51.833Z,9.32
2023-04-09T10:29:19.884Z,8.30
2023-04-09T10:31:55.574Z,9.25
2023-04-09T10:34:24.973Z,9.25
2023-04-09T10:36:54.994Z,9.70
2023-04-09T10:39:23.068Z,8.93
2023-04-09T10:41:51.038Z,8.60
2023-04-09T10:44:26.736Z,8.90
2023-04-09T10:46:55.928Z,9.23
2023-04-09T10:49:25.100Z,8.70
2023-04-09T10:52:11.575Z,9.05
2023-04-09T10:54:47.388Z,8.27
2023-04-09T10:57:16.988Z,7.87
2023-04-09T10:59:48.201Z,9.20
2023-04-09T11:02:40.824Z,8.27
2023-04-09T11:05:39.544Z,8.50
2023-04-09T11:08:14.934Z,7.53
2023-04-09T11:10:45.353Z,7.35
2023-04-09T11:13:14.695Z,7.15
2023-04-09T11:15:42.853Z,7.25
2023-04-09T11:18:15.302Z,7.82
2023-04-09T11:20:43.279Z,7.55
2023-04-09T11:23:12.009Z,8.10
2023-04-09T11:25:40.248Z,6.57
2023-04-09T11:28:09.521Z,6.87
2023-04-09T11:30:38.805Z,6.85
2023-04-09T11:33:08.072Z,5.72
2023-04-09T11:35:36.791Z,6.10
2023-04-09T11:38:09.410Z,6.85
2023-04-09T11:40:37.594Z,5.75
2023-04-09T11:43:05.769Z,6.22
2023-04-09T11:45:34.097Z,5.95
2023-04-09T11:48:02.361Z,6.20
2023-04-09T11:50:30.441Z,5.62
2023-04-09T11:52:58.599Z,7.47
2023-04-09T11:55:30.675Z,7.03
2023-04-09T11:58:00.022Z,6.07
2023-04-09T12:00:28.706Z,6.80
2023-04-09T12:03:03.301Z,5.45
2023-04-09T12:05:35.437Z,6.30
2023-04-09T12:08:06.250Z,7.10
2023-04-09T12:10:38.520Z,6.70
2023-04-09T12:13:11.787Z,6.10
2023-04-09T12:15:42.442Z,4.90
2023-04-09T12:18:11.903Z,5.07
2023-04-09T12:20:41.984Z,5.22
2023-04-09T12:23:10.093Z,5.03
2023-04-09T12:25:39.552Z,4.60
2023-04-09T12:28:08.516Z,4.50
2023-04-09T12:30:36.835Z,4.03
2023-04-09T12:33:05.251Z,5.25
2023-04-09T12:35:33.526Z,4.10
2023-04-09T12:38:01.993Z,3.70
2023-04-09T12:40:30.330Z,4.12
2023-04-09T12:42:58.304Z,4.53
2023-04-09T12:45:26.338Z,3.75
2023-04-09T12:47:54.617Z,3.78
2023-04-09T12:50:22.650Z,3.55
2023-04-09T12:52:50.630Z,3.67
2023-04-09T12:55:18.792Z,3.50
2023-04-09T12:57:48.289Z,3.30
2023-04-09T13:00:17.146Z,2.83
2023-04-09T13:02:45.313Z,3.03
2023-04-09T13:05:13.498Z,2.80
2023-04-09T13:07:43.203Z,3.92
2023-04-09T13:10:12.122Z,2.83
2023-04-09T13:12:40.255Z,2.90
2023-04-09T13:15:08.658Z,2.78
2023-04-09T13:17:36.644Z,3.00
2023-04-09T13:20:05.149Z,3.28
2023-04-09T13:22:33.266Z,3.15
2023-04-09T13:25:01.303Z,3.22
2023-04-09T13:27:29.316Z,3.00
2023-04-09T13:29:57.287Z,3.10
2023-04-09T13:32:25.610Z,3.33
2023-04-09T13:34:55.498Z,3.45
2023-04-09T13:37:23.640Z,2.78
2023-04-09T13:39:52.783Z,2.50
2023-04-09T13:42:20.745Z,2.55
2023-04-09T13:44:48.818Z,2.40
2023-04-09T13:47:18.205Z,2.30
2023-04-09T13:49:46.457Z,2.25
2023-04-09T13:52:14.646Z,2.28
2023-04-09T13:54:42.714Z,2.17
2023-04-09T13:57:11.695Z,2.20
2023-04-09T13:59:39.865Z,2.42
2023-04-09T14:02:08.024Z,2.00
2023-04-09T14:04:36.091Z,2.10
2023-04-09T14:07:04.189Z,2.00
2023-04-09T14:09:32.473Z,1.65
2023-04-09T14:12:00.685Z,1.92
2023-04-09T14:14:28.909Z,2.05
2023-04-09T14:16:56.908Z,1.83
2023-04-09T14:19:25.464Z,2.03
2023-04-09T14:21:54.721Z,1.90
2023-04-09T14:24:24.412Z,2.10
2023-04-09T14:26:54.500Z,2.12
2023-04-09T14:29:23.338Z,1.92
2023-04-09T14:31:51.419Z,1.52
2023-04-09T14:34:19.443Z,2.10
2023-04-09T14:36:47.436Z,1.52
2023-04-09T14:39:15.400Z,1.77
2023-04-09T14:41:43.409Z,2.12
2023-04-09T14:44:11.379Z,2.20
2023-04-09T14:46:39.355Z,2.28
2023-04-09T14:49:07.913Z,1.65
2023-04-09T14:51:36.068Z,2.12
2023-04-09T14:54:04.168Z,1.87
2023-04-09T14:56:32.404Z,1.83
2023-04-09T14:59:00.391Z,1.77
2023-04-09T15:01:29.702Z,1.58
2023-04-09T15:03:58.625Z,1.70
2023-04-09T15:06:27.663Z,1.45
2023-04-09T15:08:55.667Z,1.40
2023-04-09T15:11:24.336Z,1.37
2023-04-09T15:13:53.197Z,1.37
2023-04-09T15:16:25.097Z,1.30
2023-04-09T15:18:53.577Z,1.65
2023-04-09T15:21:22.104Z,1.58
2023-04-09T15:23:53.253Z,1.40
2023-04-09T15:26:21.309Z,1.40
2023-04-09T15:28:49.502Z,1.75
2023-04-09T15:31:17.789Z,1.20
2023-04-09T15:33:46.220Z,1.80
2023-04-09T15:36:14.373Z,1.37
2023-04-09T15:38:42.383Z,1.20
2023-04-09T15:41:11.338Z,1.60
2023-04-09T15:43:39.345Z,1.42
2023-04-09T15:46:11.934Z,1.23
2023-04-09T15:48:40.016Z,1.40
2023-04-09T15:51:08.501Z,1.30
2023-04-09T15:53:36.569Z,1.25
2023-04-09T15:56:05.309Z,1.17
2023-04-09T15:58:33.729Z,1.48
2023-04-09T16:01:02.784Z,1.10
2023-04-09T16:03:32.897Z,0.82
2023-04-09T16:06:05.139Z,1.40
2023-04-09T16:08:33.064Z,1.05
2023-04-09T16:11:01.052Z,1.10
2023-04-09T16:13:29.079Z,1.10
2023-04-09T16:15:57.198Z,1.33
2023-04-09T16:18:25.405Z,1.12
2023-04-09T16:20:54.874Z,1.02
2023-04-09T16:23:24.053Z,0.98
2023-04-09T16:25:52.414Z,1.17
2023-04-09T16:28:22.440Z,1.30
2023-04-09T16:30:53.268Z,1.08
2023-04-09T16:33:21.236Z,1.25
2023-04-09T16:35:49.654Z,1.10
2023-04-09T16:38:17.781Z,1.62
2023-04-09T16:40:45.748Z,1.60
2023-04-09T16:43:13.699Z,1.20
2023-04-09T16:45:41.717Z,1.45
2023-04-09T16:48:13.633Z,1.10
2023-04-09T16:50:41.752Z,1.00
2023-04-09T16:53:09.862Z,0.93
2023-04-09T16:55:37.901Z,1.17
2023-04-09T16:58:05.906Z,0.90
2023-04-09T17:00:33.833Z,1.40
2023-04-09T17:03:02.096Z,1.40
2023-04-09T17:05:30.627Z,1.20
2023-04-09T17:07:59.080Z,1.10
2023-04-09T17:10:28.676Z,1.25
2023-04-09T17:12:56.589Z,1.30
2023-04-09T17:15:26.419Z,1.33
2023-04-09T17:17:55.034Z,1.10
2023-04-09T17:20:23.996Z,1.20
2023-04-09T17:22:52.152Z,1.10
2023-04-09T17:25:21.782Z,1.30
2023-04-09T17:27:49.829Z,1.40
2023-04-09T17:30:17.834Z,1.48
2023-04-09T17:32:46.129Z,1.65
2023-04-09T17:35:14.099Z,1.30
2023-04-09T17:37:42.151Z,1.45
2023-04-09T17:40:10.911Z,1.42
2023-04-09T17:42:38.954Z,1.45
2023-04-09T17:45:07.993Z,1.40
2023-04-09T17:47:35.962Z,1.12
2023-04-09T17:50:04.230Z,1.23
2023-04-09T17:52:37.891Z,1.42
2023-04-09T17:55:15.390Z,1.10
2023-04-09T17:57:43.618Z,1.10
2023-04-09T18:00:12.412Z,1.20
2023-04-09T18:02:40.729Z,1.60
2023-04-09T18:05:09.434Z,1.60
2023-04-09T18:07:37.563Z,2.15
2023-04-09T18:10:06.035Z,1.80
2023-04-09T18:12:34.086Z,1.77
2023-04-09T18:15:02.125Z,2.37
2023-04-09T18:17:30.177Z,1.70
2023-04-09T18:19:59.559Z,2.10
2023-04-09T18:22:28.811Z,1.60
2023-04-09T18:24:57.872Z,2.00
2023-04-09T18:27:25.958Z,1.92
2023-04-09T18:29:54.102Z,2.28
2023-04-09T18:32:22.200Z,2.17
2023-04-09T18:34:50.277Z,2.03
2023-04-09T18:37:18.657Z,2.17
2023-04-09T18:39:47.658Z,2.40
2023-04-09T18:42:15.809Z,2.40
2023-04-09T18:44:43.950Z,2.50
2023-04-09T18:47:11.932Z,2.20
2023-04-09T18:49:39.925Z,2.87
2023-04-09T18:52:09.292Z,2.83
2023-04-09T18:54:38.473Z,2.58
2023-04-09T18:57:06.955Z,3.00
2023-04-09T18:59:36.242Z,2.60
2023-04-09T19:02:06.429Z,2.70
2023-04-09T19:04:37.413Z,2.80
2023-04-09T19:07:05.744Z,2.83
2023-04-09T19:09:34.168Z,3.03
2023-04-09T19:12:03.046Z,2.90
2023-04-09T19:14:31.072Z,2.57
2023-04-09T19:17:00.064Z,2.60
2023-04-09T19:19:30.269Z,3.00
2023-04-09T19:21:58.714Z,2.90
2023-04-09T19:24:26.947Z,3.30
2023-04-09T19:26:56.113Z,2.93
2023-04-09T19:29:24.106Z,3.20
2023-04-09T19:31:52.416Z,3.10
2023-04-09T19:34:20.505Z,3.47
2023-04-09T19:36:48.470Z,3.30
2023-04-09T19:39:16.905Z,3.50
2023-04-09T19:41:44.904Z,3.50
2023-04-09T19:44:13.036Z,2.90
2023-04-09T19:46:41.096Z,3.23
2023-04-09T19:49:09.276Z,3.20
2023-04-09T19:51:37.348Z,3.87
2023-04-09T19:54:05.518Z,3.60
2023-04-09T19:56:34.960Z,3.40
2023-04-09T19:59:03.666Z,3.60
2023-04-09T20:01:31.842Z,3.67
2023-04-09T20:04:00.008Z,3.50
2023-04-09T20:06:28.771Z,3.93
2023-04-09T20:08:57.352Z,3.97
2023-04-09T20:11:25.316Z,4.10
2023-04-09T20:13:53.363Z,4.17
2023-04-09T20:16:21.694Z,4.40
2023-04-09T20:18:49.791Z,4.20
2023-04-09T20:21:17.833Z,4.30
2023-04-09T20:23:46.910Z,4.20
2023-04-09T20:26:14.990Z,4.30
2023-04-09T20:28:43.130Z,4.70
2023-04-09T20:31:11.227Z,4.50
2023-04-09T20:33:39.330Z,4.40
2023-04-09T20:36:16.156Z,4.37
2023-04-09T20:38:44.374Z,4.47
2023-04-09T20:41:13.339Z,4.40
2023-04-09T20:43:41.433Z,4.47
2023-04-09T20:46:09.894Z,4.10
2023-04-09T20:48:37.948Z,4.30
2023-04-09T20:51:11.366Z,4.47
2023-04-09T20:53:39.655Z,4.63
2023-04-09T20:56:08.610Z,4.27
2023-04-09T20:58:36.679Z,4.17
2023-04-09T21:01:09.112Z,4.80
2023-04-09T21:03:38.911Z,4.20
2023-04-09T21:06:07.832Z,5.10
2023-04-09T21:08:36.046Z,4.30
2023-04-09T21:11:04.187Z,4.53
2023-04-09T21:13:40.376Z,4.27
2023-04-09T21:16:18.942Z,4.30
2023-04-09T21:18:47.115Z,4.60
2023-04-09T21:21:15.562Z,4.60
2023-04-09T21:23:43.607Z,4.63
2023-04-09T21:26:12.697Z,4.30
2023-04-09T21:28:40.710Z,4.90
2023-04-09T21:31:09.662Z,4.90
2023-04-09T21:33:37.864Z,4.37
2023-04-09T21:36:08.585Z,4.80
2023-04-09T21:38:36.828Z,4.67
2023-04-09T21:41:04.807Z,4.83
2023-04-09T21:43:32.834Z,4.63
2023-04-09T21:46:00.902Z,4.60
2023-04-09T21:48:30.397Z,4.80
2023-04-09T21:51:01.578Z,5.03
2023-04-09T21:53:31.610Z,4.83
2023-04-09T21:55:59.564Z,4.63
2023-04-09T21:58:27.574Z,4.90
2023-04-09T22:00:55.711Z,4.50
2023-04-09T22:03:24.795Z,4.93
2023-04-09T22:05:53.054Z,4.67
2023-04-09T22:08:21.079Z,4.60
2023-04-09T22:10:49.199Z,4.70
2023-04-09T22:13:17.305Z,4.43
2023-04-09T22:15:45.379Z,4.50
2023-04-09T22:18:13.386Z,5.10
2023-04-09T22:20:41.341Z,5.00
2023-04-09T22:23:11.088Z,4.87
2023-04-09T22:25:39.035Z,4.90
2023-04-09T22:28:07.398Z,5.27
2023-04-09T22:30:35.421Z,5.13
2023-04-09T22:33:03.652Z,4.73
2023-04-09T22:35:31.817Z,4.80
2023-04-09T22:38:00.777Z,4.43
2023-04-09T22:40:28.976Z,4.77
2023-04-09T22:42:56.961Z,4.97
2023-04-09T22:45:25.472Z,4.47
2023-04-09T22:47:53.607Z,5.50
2023-04-09T22:50:21.723Z,5.03
2023-04-09T22:52:49.864Z,4.93
2023-04-09T22:55:17.878Z,6.00
2023-04-09T22:57:45.822Z,5.77
2023-04-09T23:00:14.509Z,5.10
2023-04-09T23:02:42.949Z,5.57
2023-04-09T23:05:11.203Z,5.40
2023-04-09T23:07:39.491Z,5.40
2023-04-09T23:10:08.464Z,5.30
2023-04-09T23:12:37.178Z,5.40
2023-04-09T23:15:05.409Z,5.13
2023-04-09T23:17:33.474Z,4.87
2023-04-09T23:20:02.068Z,5.37
2023-04-09T23:22:30.191Z,5.57
2023-04-09T23:24:58.237Z,5.60
2023-04-09T23:27:29.800Z,5.50
2023-04-09T23:29:58.254Z,5.50
2023-04-09T23:32:26.222Z,5.50
2023-04-09T23:34:54.266Z,6.03
2023-04-09T23:37:22.159Z,5.87
2023-04-09T23:39:50.157Z,5.50
2023-04-09T23:42:18.146Z,5.63
2023-04-09T23:44:46.094Z,5.47
2023-04-09T23:47:15.185Z,4.57
2023-04-09T23:49:44.806Z,5.07
2023-04-09T23:52:12.771Z,5.27
2023-04-09T23:54:40.733Z,5.50
2023-04-09T23:57:08.669Z,5.47
2023-04-09T23:59:37.338Z,5.30
